Time,TemperatureF,DewpointF,PressureIn,WindDirection,WindDirectionDegrees,WindSpeedMPH,WindSpeedGustMPH,Humidity,HourlyPrecipIn,Conditions,Clouds,dailyrainin,SoftwareType,DateUTC
2013-08-25 00:03:00,-999.0,-99.9,-100.00,East,93,0.0,1.0,-999,-99.99,,,-99.99,,2013-08-25 04:03:00,
2013-08-25 00:25:00,71.0,-99.9,-100.00,SE,128,2.0,6.0,-999,-99.99,,,-99.99,,2013-08-25 04:25:00,
2013-08-25 00:34:00,71.0,-99.9,-100.00,SE,128,2.0,6.0,-999,-99.99,,,-99.99,,2013-08-25 04:34:00,
2013-08-25 00:44:00,71.0,-99.9,-100.00,SE,128,2.0,6.0,-999,-99.99,,,-99.99,,2013-08-25 04:44:00,
2013-08-25 00:54:00,71.0,-99.9,-100.00,SE,127,2.0,5.0,-999,-99.99,,,-99.99,,2013-08-25 04:54:00,
2013-08-25 01:03:00,71.0,-99.9,-100.00,SE,127,2.0,5.0,-999,-99.99,,,-99.99,,2013-08-25 05:03:00,
2013-08-25 01:23:00,69.0,-99.9,-100.00,ESE,118,2.0,4.0,-999,-99.99,,,-99.99,,2013-08-25 05:23:00,
2013-08-25 01:34:00,69.0,-99.9,-100.00,ESE,118,2.0,4.0,-999,-99.99,,,-99.99,,2013-08-25 05:34:00,
2013-08-25 01:52:00,70.0,-99.9,-100.00,ESE,115,2.0,7.0,-999,-99.99,,,-99.99,,2013-08-25 05:52:00,
2013-08-25 02:12:00,66.0,-99.9,-100.00,SE,128,2.0,5.0,-999,-99.99,,,-99.99,,2013-08-25 06:12:00,
2013-08-25 02:22:00,65.0,-99.9,-100.00,ESE,116,1.0,5.0,-999,-99.99,,,-99.99,,2013-08-25 06:22:00,
2013-08-25 02:32:00,65.0,-99.9,-100.00,ESE,116,1.0,5.0,-999,-99.99,,,-99.99,,2013-08-25 06:32:00,
2013-08-25 03:22:00,64.0,-99.9,-100.00,ESE,108,1.0,4.0,-999,-99.99,,,-99.99,,2013-08-25 07:22:00,
2013-08-25 03:32:00,64.0,-99.9,-100.00,ESE,108,1.0,4.0,-999,-99.99,,,-99.99,,2013-08-25 07:32:00,
2013-08-25 03:42:00,64.0,-99.9,-100.00,ESE,108,1.0,4.0,-999,-99.99,,,-99.99,,2013-08-25 07:42:00,
2013-08-25 03:53:00,64.0,-99.9,-100.00,ESE,118,1.0,5.0,-999,-99.99,,,-99.99,,2013-08-25 07:53:00,
2013-08-25 04:22:00,63.0,-99.9,-100.00,SE,127,1.0,5.0,-999,-99.99,,,-99.99,,2013-08-25 08:22:00,
2013-08-25 04:32:00,63.0,-99.9,-100.00,SE,127,1.0,5.0,-999,-99.99,,,-99.99,,2013-08-25 08:32:00,
2013-08-25 04:42:00,63.0,-99.9,-100.00,SE,127,1.0,5.0,-999,-99.99,,,-99.99,,2013-08-25 08:42:00,
2013-08-25 04:53:00,63.0,-99.9,-100.00,SE,127,1.0,6.0,-999,-99.99,,,-99.99,,2013-08-25 08:53:00,
2013-08-25 05:11:00,63.0,-99.9,-100.00,SE,127,1.0,6.0,-999,-99.99,,,-99.99,,2013-08-25 09:11:00,
2013-08-25 05:22:00,63.0,-99.9,-100.00,SSE,149,2.0,6.0,-999,-99.99,,,-99.99,,2013-08-25 09:22:00,
2013-08-25 05:44:00,63.0,-99.9,-100.00,ESE,107,1.0,6.0,-999,-99.99,,,-99.99,,2013-08-25 09:44:00,
2013-08-25 05:55:00,63.0,-99.9,-100.00,ESE,107,1.0,6.0,-999,-99.99,,,-99.99,,2013-08-25 09:55:00,
2013-08-25 06:03:00,63.0,-99.9,-100.00,ESE,107,1.0,6.0,-999,-99.99,,,-99.99,,2013-08-25 10:03:00,
2013-08-25 06:23:00,63.0,-99.9,-100.00,SSE,154,3.0,7.0,-999,-99.99,,,-99.99,,2013-08-25 10:23:00,
2013-08-25 06:33:00,63.0,-99.9,-100.00,SSE,154,3.0,7.0,-999,-99.99,,,-99.99,,2013-08-25 10:33:00,
2013-08-25 06:53:00,63.0,-99.9,-100.00,SE,137,3.0,8.0,-999,-99.99,,,-99.99,,2013-08-25 10:53:00,
2013-08-25 07:03:00,63.0,-99.9,-100.00,SE,137,3.0,8.0,-999,-99.99,,,-99.99,,2013-08-25 11:03:00,
2013-08-25 07:22:00,63.0,-99.9,-100.00,SSE,147,3.0,7.0,-999,-99.99,,,-99.99,,2013-08-25 11:22:00,
2013-08-25 07:33:00,63.0,-99.9,-100.00,SSE,147,3.0,7.0,-999,-99.99,,,-99.99,,2013-08-25 11:33:00,
2013-08-25 07:52:00,64.0,-99.9,-100.00,SE,139,4.0,10.0,-999,-99.99,,,-99.99,,2013-08-25 11:52:00,
2013-08-25 08:12:00,64.0,-99.9,-100.00,SE,139,4.0,10.0,-999,-99.99,,,-99.99,,2013-08-25 12:12:00,
2013-08-25 08:22:00,65.0,-99.9,-100.00,SE,129,4.0,9.0,-999,-99.99,,,-99.99,,2013-08-25 12:22:00,
2013-08-25 08:33:00,65.0,-99.9,-100.00,SE,129,4.0,9.0,-999,-99.99,,,-99.99,,2013-08-25 12:33:00,
2013-08-25 08:43:00,65.0,-99.9,-100.00,SE,129,4.0,9.0,-999,-99.99,,,-99.99,,2013-08-25 12:43:00,
2013-08-25 08:52:00,65.0,-99.9,-100.00,SE,129,4.0,9.0,-999,-99.99,,,-99.99,,2013-08-25 12:52:00,
2013-08-25 09:12:00,64.0,-99.9,-100.00,SE,134,4.0,10.0,-999,-99.99,,,-99.99,,2013-08-25 13:12:00,
2013-08-25 09:22:00,68.0,-99.9,-100.00,SE,130,2.0,6.0,-999,-99.99,,,-99.99,,2013-08-25 13:22:00,
2013-08-25 09:42:00,67.0,-99.9,-100.00,SE,143,3.0,9.0,-999,-99.99,,,-99.99,,2013-08-25 13:42:00,
2013-08-25 09:52:00,67.0,-99.9,-100.00,SE,143,3.0,9.0,-999,-99.99,,,-99.99,,2013-08-25 13:52:00,
2013-08-25 10:11:00,67.0,-99.9,-100.00,SE,143,3.0,9.0,-999,-99.99,,,-99.99,,2013-08-25 14:11:00,
2013-08-25 10:28:00,71.0,-99.9,-100.00,South,188,6.0,9.0,-999,-99.99,,,-99.99,,2013-08-25 14:28:00,
2013-08-25 10:52:00,72.0,-99.9,-100.00,South,185,8.0,13.0,-999,-99.99,,,-99.99,,2013-08-25 14:52:00,
2013-08-25 11:23:00,73.0,-99.9,-100.00,South,180,9.0,11.0,-999,-99.99,,,-99.99,,2013-08-25 15:23:00,
2013-08-25 11:35:00,73.0,-99.9,-100.00,South,180,9.0,11.0,-999,-99.99,,,-99.99,,2013-08-25 15:35:00,
2013-08-25 11:55:00,72.0,-99.9,-100.00,South,177,8.0,12.0,-999,-99.99,,,-99.99,,2013-08-25 15:55:00,
2013-08-25 12:24:00,76.0,-99.9,-100.00,South,185,11.0,16.0,-999,-99.99,,,-99.99,,2013-08-25 16:24:00,
2013-08-25 12:33:00,76.0,-99.9,-100.00,South,185,11.0,16.0,-999,-99.99,,,-99.99,,2013-08-25 16:33:00,
2013-08-25 12:54:00,76.0,-99.9,-100.00,South,181,11.0,15.0,-999,-99.99,,,-99.99,,2013-08-25 16:54:00,
2013-08-25 13:04:00,76.0,-99.9,-100.00,South,181,11.0,15.0,-999,-99.99,,,-99.99,,2013-08-25 17:04:00,
2013-08-25 13:23:00,77.0,-99.9,-100.00,South,179,14.0,17.0,-999,-99.99,,,-99.99,,2013-08-25 17:23:00,
2013-08-25 13:34:00,77.0,-99.9,-100.00,South,179,14.0,17.0,-999,-99.99,,,-99.99,,2013-08-25 17:34:00,
2013-08-25 13:53:00,76.0,-99.9,-100.00,South,182,12.0,19.0,-999,-99.99,,,-99.99,,2013-08-25 17:53:00,
2013-08-25 14:12:00,76.0,-99.9,-100.00,South,182,12.0,19.0,-999,-99.99,,,-99.99,,2013-08-25 18:12:00,
2013-08-25 14:22:00,76.0,-99.9,-100.00,South,182,12.0,19.0,-999,-99.99,,,-99.99,,2013-08-25 18:22:00,
2013-08-25 14:32:00,76.0,-99.9,-100.00,South,182,12.0,19.0,-999,-99.99,,,-99.99,,2013-08-25 18:32:00,
2013-08-25 14:52:00,77.0,-99.9,-100.00,South,183,10.0,17.0,-999,-99.99,,,-99.99,,2013-08-25 18:52:00,
2013-08-25 15:02:00,77.0,-99.9,-100.00,South,183,10.0,17.0,-999,-99.99,,,-99.99,,2013-08-25 19:02:00,
2013-08-25 16:24:00,80.0,-99.9,-100.00,South,182,11.0,14.0,-999,-99.99,,,-99.99,,2013-08-25 20:24:00,
2013-08-25 16:33:00,80.0,-99.9,-100.00,South,182,11.0,14.0,-999,-99.99,,,-99.99,,2013-08-25 20:33:00,
2013-08-25 18:24:00,79.0,-99.9,-100.00,South,182,10.0,14.0,-999,-99.99,,,-99.99,,2013-08-25 22:24:00,
2013-08-25 18:35:00,79.0,-99.9,-100.00,South,182,10.0,14.0,-999,-99.99,,,-99.99,,2013-08-25 22:35:00,
2013-08-25 19:00:00,82.0,-99.9,-100.00,South,182,9.0,12.0,-999,-99.99,,,-99.99,,2013-08-25 23:00:00,
2013-08-25 19:12:00,81.0,-99.9,-100.00,South,181,8.0,11.0,-999,-99.99,,,-99.99,,2013-08-25 23:12:00,
2013-08-25 19:23:00,82.0,-99.9,-100.00,South,182,9.0,12.0,-999,-99.99,,,-99.99,,2013-08-25 23:23:00,
2013-08-25 19:34:00,82.0,-99.9,-100.00,South,182,9.0,12.0,-999,-99.99,,,-99.99,,2013-08-25 23:34:00,
2013-08-25 19:43:00,82.0,-99.9,-100.00,South,182,9.0,12.0,-999,-99.99,,,-99.99,,2013-08-25 23:43:00,
2013-08-25 19:53:00,82.0,-99.9,-100.00,South,182,9.0,12.0,-999,-99.99,,,-99.99,,2013-08-25 23:53:00,
2013-08-25 20:30:00,79.0,-99.9,-100.00,South,189,7.0,14.0,-999,-99.99,,,-99.99,,2013-08-26 00:30:00,
2013-08-25 20:42:00,79.0,-99.9,-100.00,South,189,7.0,14.0,-999,-99.99,,,-99.99,,2013-08-26 00:42:00,
2013-08-25 21:11:00,79.0,-99.9,-100.00,South,189,7.0,14.0,-999,-99.99,,,-99.99,,2013-08-26 01:11:00,
2013-08-25 21:22:00,79.0,-99.9,-100.00,South,189,7.0,14.0,-999,-99.99,,,-99.99,,2013-08-26 01:22:00,
2013-08-25 21:52:00,81.0,-99.9,-100.00,SSE,167,6.0,13.0,-999,-99.99,,,-99.99,,2013-08-26 01:52:00,
2013-08-25 22:02:00,81.0,-99.9,-100.00,SSE,167,6.0,13.0,-999,-99.99,,,-99.99,,2013-08-26 02:02:00,
2013-08-25 22:22:00,81.0,-99.9,-100.00,South,173,11.0,16.0,-999,-99.99,,,-99.99,,2013-08-26 02:22:00,
2013-08-25 22:32:00,81.0,-99.9,-100.00,South,173,11.0,16.0,-999,-99.99,,,-99.99,,2013-08-26 02:32:00,
2013-08-25 22:42:00,81.0,-99.9,-100.00,South,173,11.0,16.0,-999,-99.99,,,-99.99,,2013-08-26 02:42:00,
2013-08-25 22:52:00,81.0,-99.9,-100.00,South,176,11.0,17.0,-999,-99.99,,,-99.99,,2013-08-26 02:52:00,
2013-08-25 23:02:00,81.0,-99.9,-100.00,South,176,11.0,17.0,-999,-99.99,,,-99.99,,2013-08-26 03:02:00,
2013-08-25 23:11:00,81.0,-99.9,-100.00,South,176,11.0,17.0,-999,-99.99,,,-99.99,,2013-08-26 03:11:00,
2013-08-25 23:22:00,80.0,-99.9,-100.00,South,179,12.0,16.0,-999,-99.99,,,-99.99,,2013-08-26 03:22:00,
2013-08-25 23:34:00,80.0,-99.9,-100.00,South,179,12.0,16.0,-999,-99.99,,,-99.99,,2013-08-26 03:34:00,
2013-08-25 23:44:00,80.0,-99.9,-100.00,South,179,12.0,16.0,-999,-99.99,,,-99.99,,2013-08-26 03:44:00,
2013-08-25 23:56:00,81.0,-99.9,-100.00,South,178,12.0,17.0,-999,-99.99,,,-99.99,,2013-08-26 03:56:00,